Time;durP1;ratioP1;P1;durP2;ratioP2;P2;SDS_P1;SDS_P2;PMS_P1;PMS_P2;Temp;Humidity;BMP_temperature;BMP_pressure;BME280_temperature;BME280_humidity;BME280_pressure;Samples;Min_cycle;Max_cycle;Signal;HPM_P1;HPM_P2
2022/12/03 00:01:52;;;;;;;42.40;21.47;;;;;;;-0.93;87.05;101585.76;1737621;81;21635;-77
2022/12/03 00:04:20;;;;;;;41.93;21.33;;;;;;;-0.92;87.08;101581.05;1755481;81;21002;-77
2022/12/03 00:06:46;;;;;;;42.97;21.67;;;;;;;-0.93;87.09;101584.47;1749341;81;21022;-77
2022/12/03 00:09:13;;;;;;;45.77;21.90;;;;;;;-0.94;87.13;101583.60;1741934;81;21082;-78
2022/12/03 00:11:40;;;;;;;41.00;21.43;;;;;;;-0.97;87.08;101583.52;1718082;81;21053;-77
2022/12/03 00:14:07;;;;;;;42.03;21.80;;;;;;;-0.95;87.20;101582.26;1738781;81;21137;-78
2022/12/03 00:16:34;;;;;;;45.80;22.63;;;;;;;-0.98;87.16;101583.03;1735148;81;20979;-77
2022/12/03 00:19:01;;;;;;;44.13;21.80;;;;;;;-0.96;87.33;101579.23;1742307;81;21043;-78
2022/12/03 00:21:29;;;;;;;45.40;22.30;;;;;;;-0.96;87.39;101583.09;1739358;81;21046;-78
2022/12/03 00:23:56;;;;;;;41.97;21.90;;;;;;;-0.93;87.54;101579.32;1750084;81;21511;-80
2022/12/03 00:26:23;;;;;;;39.77;21.07;;;;;;;-0.95;87.31;101579.27;1730250;81;21461;-77
2022/12/03 00:28:53;;;;;;;42.17;21.50;;;;;;;-0.98;87.33;101571.45;1744870;81;21022;-77
2022/12/03 00:31:22;;;;;;;43.80;22.23;;;;;;;-0.98;87.32;101571.88;1751698;81;21052;-77
2022/12/03 00:33:50;;;;;;;45.70;22.63;;;;;;;-1.00;87.52;101575.71;1752414;81;21022;-78
2022/12/03 00:36:18;;;;;;;43.97;22.43;;;;;;;-0.96;87.67;101564.66;1758027;81;21044;-77
2022/12/03 00:38:47;;;;;;;46.37;24.23;;;;;;;-0.91;87.68;101569.95;1730141;81;21127;-77
2022/12/03 00:41:14;;;;;;;52.43;25.67;;;;;;;-0.93;87.52;101565.16;1714466;81;20980;-78
2022/12/03 00:43:41;;;;;;;50.67;23.83;;;;;;;-0.95;87.57;101566.81;1732820;81;20931;-78
2022/12/03 00:46:08;;;;;;;52.10;25.73;;;;;;;-0.96;87.68;101565.95;1741826;81;20998;-78
2022/12/03 00:48:35;;;;;;;52.40;25.77;;;;;;;-0.93;87.83;101566.45;1750142;81;21010;-78
2022/12/03 00:51:02;;;;;;;53.20;26.17;;;;;;;-0.90;87.83;101569.11;1758491;81;21120;-78
2022/12/03 00:53:29;;;;;;;58.10;28.60;;;;;;;-0.88;87.88;101564.89;1755758;81;21042;-78
2022/12/03 00:55:56;;;;;;;54.33;26.73;;;;;;;-0.85;87.99;101566.67;1757006;81;21461;-78
2022/12/03 00:58:23;;;;;;;57.97;28.30;;;;;;;-0.83;88.00;101559.84;1753708;81;21025;-77
2022/12/03 01:00:50;;;;;;;59.97;29.70;;;;;;;-0.83;87.91;101561.13;1753884;81;21547;-77
2022/12/03 01:03:17;;;;;;;54.67;27.43;;;;;;;-0.83;88.00;101558.17;1753484;81;21969;-78
2022/12/03 01:05:44;;;;;;;57.53;27.60;;;;;;;-0.83;87.90;101562.03;1753712;81;21068;-78
2022/12/03 01:08:11;;;;;;;53.47;26.60;;;;;;;-0.85;87.95;101558.53;1753528;81;21038;-78
2022/12/03 01:10:39;;;;;;;56.67;26.53;;;;;;;-0.83;88.04;101562.03;1740456;81;21614;-77
2022/12/03 01:13:06;;;;;;;54.37;28.27;;;;;;;-0.83;88.12;101556.88;1756515;81;21477;-78
2022/12/03 01:15:33;;;;;;;55.93;26.83;;;;;;;-0.80;88.16;101562.12;1747725;81;21906;-78
2022/12/03 01:18:00;;;;;;;56.30;27.30;;;;;;;-0.80;88.09;101564.69;1743466;81;21010;-77
2022/12/03 01:20:27;;;;;;;58.77;27.17;;;;;;;-0.79;88.16;101561.27;1751009;81;21053;-77
2022/12/03 01:22:54;;;;;;;51.67;24.93;;;;;;;-0.78;88.21;101551.42;1749056;81;21006;-78
2022/12/03 01:25:21;;;;;;;56.37;27.53;;;;;;;-0.77;88.20;101556.18;1751631;81;21025;-77
2022/12/03 01:27:50;;;;;;;60.00;27.73;;;;;;;-0.77;88.16;101554.89;1748810;81;22024;-77
2022/12/03 01:30:17;;;;;;;53.67;27.53;;;;;;;-0.76;88.21;101555.34;1751874;81;21500;-78
2022/12/03 01:32:44;;;;;;;52.67;26.93;;;;;;;-0.77;88.21;101548.45;1734261;81;21023;-78
2022/12/03 01:35:11;;;;;;;63.37;29.60;;;;;;;-0.74;88.36;101549.41;1750166;81;21014;-77
2022/12/03 01:37:38;;;;;;;54.60;28.13;;;;;;;-0.73;88.35;101552.84;1751751;81;20986;-78
2022/12/03 01:40:09;;;;;;;58.33;27.73;;;;;;;-0.72;88.36;101549.43;1756340;81;21207;-78
2022/12/03 01:42:40;;;;;;;55.80;27.90;;;;;;;-0.69;88.47;101549.55;1755971;81;21069;-78
2022/12/03 01:45:13;;;;;;;65.75;28.73;;;;;;;-0.74;88.14;101548.12;1752339;81;27618;-77
2022/12/03 01:47:40;;;;;;;61.20;27.23;;;;;;;-0.76;88.26;101547.62;1751342;81;20930;-77
2022/12/03 01:50:18;;;;;;;60.67;28.37;;;;;;;-0.76;88.40;101542.47;1748544;81;21018;-77
2022/12/03 01:52:45;;;;;;;60.53;27.93;;;;;;;-0.74;88.51;101547.25;1751939;81;21925;-78
2022/12/03 01:55:18;;;;;;;58.37;28.53;;;;;;;-0.80;88.37;101542.81;1750794;81;21029;-78
2022/12/03 01:57:49;;;;;;;55.13;25.93;;;;;;;-0.84;88.42;101548.69;1749951;81;20994;-78
2022/12/03 02:00:21;;;;;;;56.23;26.70;;;;;;;-0.85;88.54;101543.52;1752249;81;21014;-77
2022/12/03 02:02:51;;;;;;;62.63;28.27;;;;;;;-0.86;88.62;101542.61;1759424;81;21536;-78
2022/12/03 02:05:28;;;;;;;64.37;29.27;;;;;;;-0.88;88.67;101539.15;1753207;81;21111;-77
2022/12/03 02:07:57;;;;;;;62.33;26.50;;;;;;;-0.90;88.67;101536.52;1748878;81;21026;-77
2022/12/03 02:10:34;;;;;;;55.73;24.23;;;;;;;-0.94;88.78;101538.98;1751625;81;20991;-78
2022/12/03 02:13:05;;;;;;;55.00;24.60;;;;;;;-0.97;88.60;101539.77;1750734;81;21017;-77
2022/12/03 02:15:32;;;;;;;55.70;25.27;;;;;;;-1.04;88.60;101540.83;1751894;81;20982;-78
2022/12/03 02:18:00;;;;;;;57.60;25.60;;;;;;;-1.09;88.76;101540.69;1748720;81;21285;-77
2022/12/03 02:20:29;;;;;;;51.97;23.73;;;;;;;-1.10;88.95;101538.95;1749502;81;21586;-77
2022/12/03 02:23:32;;;;;;;56.67;23.53;;;;;;;-1.09;88.88;101547.54;1742273;81;21046;-78
2022/12/03 02:25:59;;;;;;;48.97;22.43;;;;;;;-1.14;88.89;101541.86;1758274;81;20982;-77
2022/12/03 02:28:27;;;;;;;57.10;25.30;;;;;;;-1.17;89.16;101546.89;1753747;81;21018;-77
2022/12/03 02:30:54;;;;;;;52.87;23.63;;;;;;;-1.16;89.35;101538.36;1753687;81;21216;-78
2022/12/03 02:33:21;;;;;;;56.03;23.70;;;;;;;-1.14;89.49;101542.25;1753694;81;21033;-78
2022/12/03 02:35:49;;;;;;;58.30;25.97;;;;;;;-1.14;89.44;101547.00;1758429;81;21011;-78
2022/12/03 02:38:20;;;;;;;53.83;24.13;;;;;;;-1.17;89.44;101542.16;1738310;81;21035;-77
2022/12/03 02:40:51;;;;;;;53.27;23.63;;;;;;;-1.20;89.54;101540.38;1738827;81;21552;-77
2022/12/03 02:43:19;;;;;;;53.07;23.00;;;;;;;-1.19;89.76;101538.28;1760854;81;21127;-78
2022/12/03 02:45:51;;;;;;;50.03;22.60;;;;;;;-1.19;89.86;101538.66;1760190;81;21053;-77
2022/12/03 02:48:30;;;;;;;51.40;22.80;;;;;;;-1.18;90.00;101536.16;1751177;81;21068;-78
2022/12/03 02:51:04;;;;;;;45.23;21.57;;;;;;;-1.17;90.07;101536.59;1748869;81;21021;-77
2022/12/03 02:53:37;;;;;;;45.00;20.27;;;;;;;-1.19;89.91;101536.09;1751637;81;21288;-77
2022/12/03 02:56:05;;;;;;;42.10;19.80;;;;;;;-1.19;90.12;101540.84;1750114;81;21312;-76
2022/12/03 02:58:34;;;;;;;45.23;19.53;;;;;;;-1.17;90.35;101535.73;1749959;81;22056;-78
2022/12/03 03:01:03;;;;;;;49.47;21.03;;;;;;;-1.17;90.28;101532.73;1750584;81;21409;-77
2022/12/03 03:03:32;;;;;;;48.27;20.37;;;;;;;-1.19;90.21;101536.09;1753612;81;21006;-77
2022/12/03 03:06:01;;;;;;;52.37;20.83;;;;;;;-1.22;90.21;101536.91;1756290;81;21635;-78
2022/12/03 03:08:29;;;;;;;45.00;20.67;;;;;;;-1.24;90.42;101532.13;1759274;81;21137;-77
2022/12/03 03:10:59;;;;;;;42.73;21.00;;;;;;;-1.23;90.53;101532.56;1760705;81;22743;-78
2022/12/03 03:13:28;;;;;;;44.55;21.02;;;;;;;-1.23;90.55;101536.84;1731132;82;21032;-77
2022/12/03 03:15:56;;;;;;;39.60;18.43;;;;;;;-1.22;90.71;101534.72;1713227;83;21039;-77
2022/12/03 03:18:23;;;;;;;38.50;18.30;;;;;;;-1.23;90.78;101528.70;1701766;82;21028;-77
2022/12/03 03:20:50;;;;;;;44.53;19.17;;;;;;;-1.20;90.82;101521.08;1719415;82;21122;-77
2022/12/03 03:23:21;;;;;;;40.70;19.27;;;;;;;-1.19;90.88;101526.70;1730908;82;21525;-77
2022/12/03 03:25:59;;;;;;;40.83;19.83;;;;;;;-1.19;90.86;101521.94;1730937;82;21051;-77
2022/12/03 03:28:27;;;;;;;42.70;19.40;;;;;;;-1.21;90.82;101525.78;1730856;82;21031;-77
2022/12/03 03:30:55;;;;;;;46.37;19.83;;;;;;;-1.21;90.82;101524.48;1731019;82;21032;-77
2022/12/03 03:33:22;;;;;;;39.40;18.60;;;;;;;-1.24;90.92;101517.97;1730966;82;21142;-77
2022/12/03 03:35:50;;;;;;;37.30;17.77;;;;;;;-1.22;90.94;101520.19;1730885;82;21043;-77
2022/12/03 03:38:19;;;;;;;41.17;19.77;;;;;;;-1.23;91.12;101524.84;1731195;82;21055;-77
2022/12/03 03:40:49;;;;;;;46.20;21.17;;;;;;;-1.23;91.02;101521.41;1731262;82;20968;-77
2022/12/03 03:43:16;;;;;;;41.80;19.93;;;;;;;-1.23;91.02;101521.41;1718563;82;21011;-77
2022/12/03 03:45:44;;;;;;;46.33;20.57;;;;;;;-1.30;90.79;101521.66;1710939;82;21131;-77
2022/12/03 03:48:12;;;;;;;42.07;20.03;;;;;;;-1.31;91.07;101513.47;1730910;82;20999;-77
2022/12/03 03:50:41;;;;;;;42.13;19.83;;;;;;;-1.26;91.23;101514.89;1730882;82;21035;-77
2022/12/03 03:53:08;;;;;;;42.23;20.10;;;;;;;-1.26;91.34;101511.91;1730901;82;20985;-77
2022/12/03 03:55:39;;;;;;;41.50;19.93;;;;;;;-1.22;91.38;101516.71;1730798;82;21573;-77
2022/12/03 03:58:06;;;;;;;43.37;19.90;;;;;;;-1.20;91.39;101511.20;1730945;82;21139;-77
2022/12/03 04:00:35;;;;;;;42.10;20.03;;;;;;;-1.21;91.24;101510.34;1730858;82;21035;-76
2022/12/03 04:03:06;;;;;;;46.00;21.03;;;;;;;-1.23;91.25;101508.55;1730840;82;21028;-77
2022/12/03 04:05:33;;;;;;;;;;;;;;;-1.24;91.24;101507.69;1733605;82;21004;-77
2022/12/03 04:07:59;;;;;;;43.93;19.57;;;;;;;-1.25;91.33;101512.34;1730849;82;20567;-76
2022/12/03 04:13:12;;;;;;;45.87;21.17;;;;;;;-1.26;91.45;101500.33;1731920;81;20984;-77
2022/12/03 04:15:39;;;;;;;40.40;19.57;;;;;;;-1.29;91.31;101500.24;1732178;82;21011;-77
2022/12/03 04:22:38;;;;;;;42.57;20.07;;;;;;;-1.27;91.55;101485.73;1732304;82;21036;-77
2022/12/03 04:23:20;;;;;;;48.10;22.07;;;;;;;-1.25;91.53;101489.20;1729913;82;21278;-77
2022/12/03 04:28:48;;;;;;;41.93;20.50;;;;;;;-1.21;91.61;101503.05;1707977;82;21958;-77
2022/12/03 04:36:46;;;;;;;43.83;18.90;;;;;;;-1.30;91.26;101492.08;1732194;82;21969;-77
2022/12/03 04:39:13;;;;;;;38.10;18.10;;;;;;;-1.29;91.38;101500.66;1722734;82;21066;-77
2022/12/03 04:41:40;;;;;;;37.27;19.97;;;;;;;-1.29;91.47;101491.66;1730429;82;21016;-77
2022/12/03 04:46:52;;;;;;;37.20;18.30;;;;;;;-1.28;91.40;101497.25;1732208;82;20999;-77
2022/12/03 04:49:20;;;;;;;38.90;19.27;;;;;;;-1.31;91.37;101494.17;1716358;82;21496;-77
2022/12/03 04:51:48;;;;;;;36.80;19.53;;;;;;;-1.32;91.37;101493.73;1723396;82;21596;-77
2022/12/03 04:54:15;;;;;;;37.50;18.83;;;;;;;-1.36;91.23;101490.59;1716658;82;21016;-77
2022/12/03 04:56:42;;;;;;;37.87;19.53;;;;;;;-1.38;91.23;101492.27;1732260;82;20989;-77
2022/12/03 04:59:11;;;;;;;40.77;19.50;;;;;;;-1.39;91.38;101492.66;1725713;82;21022;-77
2022/12/03 05:01:37;;;;;;;36.63;18.97;;;;;;;-1.36;91.40;101486.73;1727735;82;21123;-77
2022/12/03 05:04:06;;;;;;;37.23;18.03;;;;;;;-1.38;91.40;101487.13;1722843;82;21481;-77
2022/12/03 05:06:33;;;;;;;34.30;18.07;;;;;;;-1.36;91.58;101487.63;1711011;82;21475;-77
2022/12/03 05:09:01;;;;;;;34.23;18.30;;;;;;;-1.32;91.65;101495.02;1731402;82;22100;-77
2022/12/03 05:11:28;;;;;;;34.37;17.77;;;;;;;-1.30;91.66;101489.51;1725392;82;21071;-79
2022/12/03 05:13:55;;;;;;;40.83;18.23;;;;;;;-1.27;91.61;101481.88;1729021;82;21176;-75
2022/12/03 05:16:21;;;;;;;35.70;18.20;;;;;;;-1.30;91.53;101481.80;1724574;82;21020;-75
2022/12/03 05:18:48;;;;;;;37.27;18.80;;;;;;;-1.28;91.59;101483.10;1730182;82;21023;-76
2022/12/03 05:21:15;;;;;;;38.63;18.57;;;;;;;-1.29;91.56;101481.37;1729832;82;21035;-76
2022/12/03 05:23:43;;;;;;;35.47;18.87;;;;;;;-1.33;91.40;101486.85;1730302;82;21553;-76
2022/12/03 05:26:10;;;;;;;34.90;17.77;;;;;;;-1.35;91.49;101485.50;1729904;82;21126;-76
2022/12/03 05:28:37;;;;;;;42.73;20.33;;;;;;;-1.36;91.57;101484.16;1730251;82;21007;-76
2022/12/03 05:31:04;;;;;;;35.10;18.40;;;;;;;-1.34;91.73;101487.66;1702802;82;21501;-76
2022/12/03 05:33:31;;;;;;;39.37;20.60;;;;;;;-1.31;91.85;101490.73;1729881;82;21071;-76
2022/12/03 05:35:58;;;;;;;40.90;20.10;;;;;;;-1.27;91.92;101494.73;1729741;82;21039;-76
2022/12/03 05:38:25;;;;;;;35.60;19.90;;;;;;;-1.28;91.83;101489.11;1726277;82;21112;-76
2022/12/03 05:40:52;;;;;;;38.00;19.03;;;;;;;-1.24;92.05;101488.39;1729338;82;21024;-76
2022/12/03 05:43:19;;;;;;;38.17;19.00;;;;;;;-1.23;91.84;101482.41;1730014;82;21071;-76
2022/12/03 05:45:46;;;;;;;39.93;20.63;;;;;;;-1.20;91.88;101482.48;1724160;82;21565;-76
2022/12/03 05:48:16;;;;;;;36.43;18.30;;;;;;;-1.20;91.87;101484.20;1729360;82;21016;-76
2022/12/03 05:50:45;;;;;;;40.33;20.00;;;;;;;-1.19;91.84;101485.93;1729961;82;21142;-76
2022/12/03 05:53:16;;;;;;;37.47;19.20;;;;;;;-1.16;92.00;101477.04;1729839;82;21043;-76
2022/12/03 05:55:43;;;;;;;38.03;20.53;;;;;;;-1.14;92.07;101482.69;1724550;82;21087;-76
2022/12/03 05:58:10;;;;;;;41.13;20.50;;;;;;;-1.14;91.79;101481.79;1729814;82;21007;-76
2022/12/03 06:00:37;;;;;;;43.57;20.77;;;;;;;-1.16;91.76;101484.34;1729549;82;21027;-76
2022/12/03 06:03:05;;;;;;;42.37;20.17;;;;;;;-1.14;91.93;101477.55;1730218;82;21115;-76
2022/12/03 06:05:33;;;;;;;38.00;20.77;;;;;;;-1.15;91.89;101477.06;1729763;82;21009;-76
2022/12/03 06:08:01;;;;;;;38.77;20.73;;;;;;;-1.14;91.92;101472.78;1730068;82;21401;-76
2022/12/03 06:10:28;;;;;;;39.20;20.53;;;;;;;-1.12;91.95;101470.72;1727925;82;20988;-76
2022/12/03 06:12:55;;;;;;;42.77;21.30;;;;;;;-1.13;91.82;101468.12;1729488;81;22121;-76
2022/12/03 06:15:22;;;;;;;43.13;21.57;;;;;;;-1.15;91.99;101471.92;1721764;82;21204;-76
2022/12/03 06:17:49;;;;;;;40.17;20.40;;;;;;;-1.13;92.04;101468.98;1712327;82;21027;-76
2022/12/03 06:20:19;;;;;;;44.13;22.00;;;;;;;-1.12;92.05;101472.00;1722966;82;21475;-76
2022/12/03 06:22:47;;;;;;;46.13;23.07;;;;;;;-1.09;92.20;101475.08;1729852;82;21043;-76
2022/12/03 06:25:15;;;;;;;49.27;22.83;;;;;;;-1.08;92.20;101474.66;1724039;82;21028;-76
2022/12/03 06:27:42;;;;;;;43.60;22.00;;;;;;;-1.10;91.91;101470.77;1730034;82;21162;-76
2022/12/03 06:30:13;;;;;;;45.43;21.77;;;;;;;-1.13;91.97;101474.55;1730168;82;21083;-76
2022/12/03 06:32:40;;;;;;;43.60;21.95;;;;;;;-1.14;92.11;101476.25;1725755;82;21541;-76
2022/12/03 06:35:08;;;;;;;44.83;21.47;;;;;;;-1.14;92.19;101471.11;1758982;81;21078;-79
2022/12/03 06:37:35;;;;;;;44.73;23.20;;;;;;;-1.14;92.27;101469.82;1737887;81;21544;-77
2022/12/03 06:40:02;;;;;;;45.20;21.67;;;;;;;-1.14;92.27;101474.97;1757750;81;21292;-76
2022/12/03 06:42:28;;;;;;;46.03;22.47;;;;;;;-1.15;92.29;101478.34;1758466;81;21011;-76
2022/12/03 06:44:55;;;;;;;44.13;23.50;;;;;;;-1.13;92.52;101474.13;1758320;81;21042;-76
2022/12/03 06:47:22;;;;;;;49.13;23.77;;;;;;;-1.12;92.64;101473.70;1758299;81;21062;-84
2022/12/03 06:49:49;;;;;;;48.53;23.50;;;;;;;-1.10;92.54;101475.05;1756830;81;21030;-76
2022/12/03 06:52:16;;;;;;;49.43;23.07;;;;;;;-1.14;92.53;101474.97;1723896;82;21139;-76
2022/12/03 06:54:43;;;;;;;50.47;24.50;;;;;;;-1.14;92.57;101474.97;1724495;82;20991;-76
2022/12/03 06:57:10;;;;;;;47.03;23.53;;;;;;;-1.14;92.71;101477.55;1726169;81;21034;-76
2022/12/03 06:59:37;;;;;;;49.63;23.83;;;;;;;-1.13;92.73;101471.55;1726947;83;21430;-77
2022/12/03 07:02:04;;;;;;;46.50;24.07;;;;;;;-1.18;92.60;101469.27;1722156;81;21023;-75
2022/12/03 07:04:31;;;;;;;51.77;23.60;;;;;;;-1.20;92.62;101468.34;1726395;82;21148;-76
2022/12/03 07:06:58;;;;;;;43.90;23.37;;;;;;;-1.21;92.77;101467.03;1720618;81;20980;-78
2022/12/03 07:09:25;;;;;;;49.33;24.97;;;;;;;-1.17;93.01;101472.28;1726007;83;21047;-79
2022/12/03 07:11:52;;;;;;;47.13;23.10;;;;;;;-1.17;92.93;101466.27;1758064;81;21038;-77
2022/12/03 07:14:19;;;;;;;47.93;24.40;;;;;;;-1.16;93.05;101466.33;1720920;81;21043;-79
2022/12/03 07:16:46;;;;;;;45.57;23.37;;;;;;;-1.14;93.11;101465.97;1732769;82;21958;-79
2022/12/03 07:19:13;;;;;;;51.47;25.03;;;;;;;-1.14;93.15;101462.49;1733815;81;21313;-76
2022/12/03 07:21:40;;;;;;;48.47;24.70;;;;;;;-1.13;93.18;101457.41;1734283;82;21397;-78
2022/12/03 07:24:08;;;;;;;44.67;22.73;;;;;;;-1.10;93.23;101462.19;1734367;82;21482;-76
2022/12/03 07:26:35;;;;;;;44.90;24.07;;;;;;;-1.09;93.26;101457.06;1725971;82;21048;-76
2022/12/03 07:29:02;;;;;;;41.80;22.87;;;;;;;-1.08;93.29;101456.64;1751839;81;21135;-76
2022/12/03 07:31:30;;;;;;;46.77;23.57;;;;;;;-1.06;93.28;101452.00;1751899;81;21031;-75
2022/12/03 07:33:57;;;;;;;43.37;22.47;;;;;;;-1.03;93.19;101454.66;1751743;81;21033;-75
2022/12/03 07:36:24;;;;;;;49.97;24.07;;;;;;;-1.02;93.21;101455.55;1751789;81;22149;-79
2022/12/03 07:38:51;;;;;;;47.60;24.63;;;;;;;-1.01;93.26;101454.70;1747744;81;21043;-78
2022/12/03 07:41:18;;;;;;;46.80;23.43;;;;;;;-0.99;93.24;101460.35;1730455;82;21829;-77
2022/12/03 07:43:45;;;;;;;44.70;22.40;;;;;;;-0.99;93.20;101465.50;1721731;83;21046;-81
2022/12/03 07:46:12;;;;;;;49.13;24.80;;;;;;;-0.99;93.23;101457.78;1732971;81;21078;-79
2022/12/03 07:48:39;;;;;;;47.80;23.53;;;;;;;-0.97;93.29;101469.38;1730169;81;21010;-78
2022/12/03 07:51:06;;;;;;;46.53;24.53;;;;;;;-0.97;93.15;101468.09;1756328;81;21041;-75
2022/12/03 07:53:34;;;;;;;46.43;23.80;;;;;;;-0.99;93.01;101465.50;1724611;81;21140;-77
2022/12/03 07:56:03;;;;;;;49.23;24.83;;;;;;;-0.99;93.11;101462.06;1734468;81;21035;-82
2022/12/03 07:58:31;;;;;;;46.30;24.47;;;;;;;-0.96;93.20;101460.44;1727314;81;21066;-82
2022/12/03 08:00:59;;;;;;;54.10;24.60;;;;;;;-0.98;93.06;101456.07;1727406;81;21091;-83
2022/12/03 08:03:26;;;;;;;46.53;23.60;;;;;;;-0.98;93.23;101459.51;1720494;83;21004;-85
2022/12/03 08:05:54;;;;;;;49.93;24.70;;;;;;;-0.97;93.19;101453.55;1721496;83;21061;-86
2022/12/03 08:08:21;;;;;;;44.30;23.23;;;;;;;-0.96;93.21;101452.71;1743940;81;21527;-81
2022/12/03 08:10:48;;;;;;;50.10;25.87;;;;;;;-0.94;93.31;101446.34;1721908;83;21067;-83
2022/12/03 08:13:18;;;;;;;46.87;23.23;;;;;;;-0.93;93.17;101444.20;1723081;81;21075;-86
2022/12/03 08:15:46;;;;;;;50.88;23.65;;;;;;;-0.94;93.11;101447.63;1721038;81;21536;-81
2022/12/03 08:18:19;;;;;;;48.43;24.17;;;;;;;-0.94;93.20;101446.34;1740380;81;21110;-83
2022/12/03 08:20:49;;;;;;;47.43;24.83;;;;;;;-0.93;93.25;101450.64;1739951;81;21011;-82
2022/12/03 08:23:24;;;;;;;52.67;25.80;;;;;;;-0.91;93.24;101448.98;1733676;81;21023;-76
2022/12/03 08:25:52;;;;;;;46.00;24.90;;;;;;;-0.89;93.29;101449.88;1725037;81;20948;-76
2022/12/03 08:28:22;;;;;;;48.03;25.37;;;;;;;-0.87;93.42;101444.36;1723421;81;21129;-77
2022/12/03 08:31:11;;;;;;;55.53;26.53;;;;;;;-0.83;93.52;101450.45;1731401;82;21132;-74
2022/12/03 08:33:40;;;;;;;50.03;24.93;;;;;;;-0.79;93.55;101446.72;1720825;82;21023;-80
2022/12/03 08:36:17;;;;;;;50.37;24.93;;;;;;;-0.74;93.64;101445.14;1757984;81;21471;-78
2022/12/03 08:38:52;;;;;;;48.87;23.83;;;;;;;-0.70;93.58;101446.08;1730790;82;21043;-82
2022/12/03 08:44:21;;;;;;;53.20;27.00;;;;;;;-0.72;93.20;101440.91;1728893;82;21622;-86
2022/12/03 08:47:11;;;;;;;50.03;25.60;;;;;;;-0.72;93.31;101442.59;1723580;82;21696;-80
2022/12/03 08:49:39;;;;;;;48.60;24.93;;;;;;;-0.70;93.37;101437.07;1659884;84;21078;-80
2022/12/03 08:52:17;;;;;;;47.90;25.90;;;;;;;-0.69;93.45;101443.56;1660637;84;21070;-78
2022/12/03 08:54:53;;;;;;;52.00;26.43;;;;;;;-0.64;93.45;101444.95;1660032;84;21192;-81
2022/12/03 08:57:32;;;;;;;50.60;24.87;;;;;;;-0.61;93.50;101444.16;1658188;84;22009;-86
2022/12/03 09:00:22;;;;;;;50.90;25.57;;;;;;;-0.61;93.39;101443.77;1660317;84;21063;-82
2022/12/03 09:02:53;;;;;;;46.98;24.32;;;;;;;-0.60;93.49;101434.33;1657562;84;21067;-82
2022/12/03 09:05:28;;;;;;;44.67;24.03;;;;;;;-0.59;93.42;101436.92;1669157;84;21054;-80
2022/12/03 09:07:55;;;;;;;52.53;25.77;;;;;;;-0.55;93.63;101431.03;1670493;83;21133;-86
2022/12/03 09:10:22;;;;;;;48.60;24.57;;;;;;;-0.52;93.54;101427.24;1670210;83;21142;-85
2022/12/03 09:12:52;;;;;;;51.97;26.30;;;;;;;-0.49;93.45;101432.89;1670413;84;21153;-78
2022/12/03 09:15:19;;;;;;;45.80;23.87;;;;;;;-0.49;93.36;101432.47;1645853;85;22247;-75
2022/12/03 09:17:45;;;;;;;53.50;25.63;;;;;;;-0.46;93.46;101422.66;1634910;86;21077;-81
2022/12/03 09:20:13;;;;;;;47.67;24.07;;;;;;;-0.42;93.47;101421.02;1638314;84;21090;-85
2022/12/03 09:22:39;;;;;;;47.93;25.27;;;;;;;-0.43;93.29;101417.58;1693688;82;21145;-80
2022/12/03 09:25:07;;;;;;;50.17;25.30;;;;;;;-0.41;93.40;101414.63;1688905;84;21588;-84
2022/12/03 09:27:34;;;;;;;51.83;24.13;;;;;;;-0.34;93.65;101415.21;1678926;84;21099;-84
2022/12/03 09:30:02;;;;;;;48.10;25.33;;;;;;;-0.28;93.66;101401.21;1688903;84;21086;-80
2022/12/03 09:32:29;;;;;;;46.90;25.00;;;;;;;-0.24;93.45;101404.72;1682734;82;21057;-78
2022/12/03 09:34:56;;;;;;;48.67;24.50;;;;;;;-0.23;93.34;101400.01;1682703;82;21070;-87
2022/12/03 09:37:23;;;;;;;55.90;27.67;;;;;;;-0.23;93.29;101402.16;1689096;82;21256;-83
2022/12/03 09:39:50;;;;;;;45.63;25.23;;;;;;;-0.23;93.12;101404.73;1685680;82;21081;-85
2022/12/03 09:42:17;;;;;;;53.90;26.90;;;;;;;-0.21;93.19;101414.23;1692899;82;21052;-81
2022/12/03 09:44:44;;;;;;;54.67;26.07;;;;;;;-0.21;93.11;101427.11;1696876;82;21062;-82
2022/12/03 09:47:11;;;;;;;53.70;28.33;;;;;;;-0.23;92.90;101427.92;1675169;84;21137;-81
2022/12/03 09:49:41;;;;;;;54.13;28.17;;;;;;;-0.23;92.92;101421.91;1693409;84;21038;-76
2022/12/03 09:52:12;;;;;;;53.23;27.53;;;;;;;-0.23;93.07;101431.79;1691802;84;21516;-79
2022/12/03 09:54:40;;;;;;;48.90;24.90;;;;;;;-0.22;93.04;101419.81;1684732;84;21060;-82
2022/12/03 09:57:11;;;;;;;51.27;25.97;;;;;;;-0.20;93.12;101418.53;1689671;84;21049;-84
2022/12/03 09:59:38;;;;;;;56.87;27.30;;;;;;;-0.20;93.10;101416.83;1675075;82;21150;-81
2022/12/03 10:02:16;;;;;;;51.17;26.80;;;;;;;-0.18;93.23;101419.45;1691640;84;21071;-79
2022/12/03 10:04:43;;;;;;;50.77;24.97;;;;;;;-0.16;93.21;101413.92;1705994;82;20947;-81
2022/12/03 10:07:10;;;;;;;54.37;25.03;;;;;;;-0.14;93.27;101404.11;1695022;82;21514;-85
2022/12/03 10:09:37;;;;;;;47.57;24.17;;;;;;;-0.14;93.12;101406.69;1682550;83;21059;-84
2022/12/03 10:12:05;;;;;;;50.00;25.30;;;;;;;-0.17;93.01;101407.01;1699564;83;21139;-84
2022/12/03 10:14:33;;;;;;;50.93;26.50;;;;;;;-0.13;93.29;101402.39;1694823;82;21066;-83
2022/12/03 10:17:01;;;;;;;47.57;25.53;;;;;;;-0.11;93.15;101402.88;1710548;83;21535;-80
2022/12/03 10:19:31;;;;;;;49.77;25.30;;;;;;;-0.07;93.38;101402.10;1710793;83;21049;-79
2022/12/03 10:21:58;;;;;;;;;;;;;;;-0.03;93.41;101401.74;1713661;83;21018;-78
2022/12/03 10:24:29;;;;;;;52.13;25.80;;;;;;;0.02;93.35;101405.72;1710731;83;21094;-83
2022/12/03 10:27:03;;;;;;;54.27;26.47;;;;;;;0.02;93.28;101403.14;1711016;83;21550;-77
2022/12/03 10:29:35;;;;;;;52.07;27.10;;;;;;;0.02;93.05;101404.43;1710640;83;21005;-78
2022/12/03 10:32:07;;;;;;;56.43;26.00;;;;;;;0.01;92.94;101403.57;1710520;83;21088;-81
2022/12/03 10:34:40;;;;;;;50.90;26.50;;;;;;;0.01;93.01;101398.84;1710255;83;21514;-79
2022/12/03 10:37:20;;;;;;;50.40;26.67;;;;;;;0.01;93.00;101397.55;1711185;83;21790;-82
2022/12/03 10:40:09;;;;;;;54.33;27.10;;;;;;;0.03;93.12;101396.75;1710524;82;21702;-79
2022/12/03 10:42:40;;;;;;;51.25;27.40;;;;;;;0.03;92.99;101389.41;1710728;83;21045;-78
2022/12/03 10:45:22;;;;;;;49.13;26.23;;;;;;;0.02;92.98;101393.70;1703473;82;20986;-79
2022/12/03 10:48:14;;;;;;;53.97;26.63;;;;;;;0.02;93.00;101390.26;1703244;83;21056;-79
2022/12/03 10:51:03;;;;;;;53.57;28.20;;;;;;;0.04;93.07;101394.61;1703661;83;21567;-81
2022/12/03 10:53:39;;;;;;;51.63;27.17;;;;;;;0.07;93.15;101387.37;1702530;83;22180;-80
2022/12/03 10:56:09;;;;;;;51.37;27.77;;;;;;;0.07;93.12;101380.50;1702372;83;21055;-79
2022/12/03 10:58:39;;;;;;;51.28;26.40;;;;;;;0.10;93.22;101381.84;1701936;83;21141;-82
2022/12/03 11:01:16;;;;;;;55.50;27.80;;;;;;;0.10;93.07;101377.98;1702535;83;21116;-80
2022/12/03 11:03:44;;;;;;;53.97;27.93;;;;;;;0.12;92.99;101376.31;1703608;83;21219;-80
2022/12/03 11:06:17;;;;;;;54.97;28.53;;;;;;;0.11;93.02;101377.16;1701666;83;21075;-79
2022/12/03 11:08:47;;;;;;;53.03;27.63;;;;;;;0.11;92.98;101370.72;1692257;83;21033;-79
2022/12/03 11:11:25;;;;;;;55.98;28.07;;;;;;;0.11;93.00;101366.85;1705739;83;21045;-78
2022/12/03 11:13:55;;;;;;;53.70;27.53;;;;;;;0.16;93.22;101366.92;1707887;82;21487;-79
2022/12/03 11:16:46;;;;;;;55.33;27.45;;;;;;;0.21;93.33;101361.45;1733322;81;21240;-79
2022/12/03 11:19:20;;;;;;;52.10;26.70;;;;;;;0.25;93.45;101363.66;1733351;81;21281;-79
2022/12/03 11:22:11;;;;;;;56.27;27.77;;;;;;;0.33;93.51;101359.53;1717482;82;21046;-79
2022/12/03 11:24:39;;;;;;;;;;;;;;;0.35;93.36;101360.02;1737254;82;20955;-79
2022/12/03 11:27:17;;;;;;;59.63;29.27;;;;;;;0.39;93.39;101359.26;1733003;82;20501;-78
2022/12/03 11:29:57;;;;;;;51.50;27.80;;;;;;;0.40;93.18;101354.97;1733730;82;21921;-78
2022/12/03 11:32:45;;;;;;;55.35;27.70;;;;;;;0.43;93.27;101348.57;1733644;82;20900;-77
2022/12/03 11:35:14;;;;;;;53.07;27.57;;;;;;;0.46;93.10;101350.34;1734338;81;21086;-78
2022/12/03 11:37:41;;;;;;;51.77;27.43;;;;;;;0.48;93.00;101345.67;1734620;82;21038;-77
2022/12/03 11:40:23;;;;;;;54.83;27.57;;;;;;;0.50;92.98;101340.52;1734459;81;21433;-77
2022/12/03 11:42:50;;;;;;;50.50;26.67;;;;;;;0.54;93.07;101346.20;1733858;81;21326;-80